createdAt,value
2023-01-05T00:01:54.301Z,8.80
2023-01-05T00:04:22.925Z,8.92
2023-01-05T00:06:50.720Z,8.98
2023-01-05T00:09:19.681Z,8.90
2023-01-05T00:12:08.798Z,8.84
2023-01-05T00:14:56.038Z,8.76
2023-01-05T00:17:43.567Z,8.66
2023-01-05T00:20:36.303Z,8.65
2023-01-05T00:23:04.847Z,8.58
2023-01-05T00:25:38.242Z,8.55
2023-01-05T00:28:06.883Z,8.51
2023-01-05T00:30:42.632Z,8.49
2023-01-05T00:33:13.337Z,8.50
2023-01-05T00:35:42.366Z,8.49
2023-01-05T00:38:10.881Z,8.50
2023-01-05T00:40:40.240Z,8.52
2023-01-05T00:43:07.964Z,8.50
2023-01-05T00:45:36.190Z,8.49
2023-01-05T00:48:04.222Z,8.46
2023-01-05T00:50:32.113Z,8.39
2023-01-05T00:53:02.261Z,8.35
2023-01-05T00:55:30.254Z,8.35
2023-01-05T00:57:57.855Z,8.33
2023-01-05T01:00:25.874Z,8.34
2023-01-05T01:02:53.848Z,8.34
2023-01-05T01:05:22.043Z,8.32
2023-01-05T01:07:51.218Z,8.30
2023-01-05T01:10:20.185Z,8.28
2023-01-05T01:12:47.786Z,8.24
2023-01-05T01:15:15.640Z,8.22
2023-01-05T01:17:43.207Z,8.18
2023-01-05T01:20:11.307Z,8.14
2023-01-05T01:22:39.464Z,8.09
2023-01-05T01:25:09.264Z,8.10
2023-01-05T01:27:36.864Z,8.01
2023-01-05T01:30:05.552Z,7.96
2023-01-05T01:32:33.211Z,7.98
2023-01-05T01:35:02.461Z,7.96
2023-01-05T01:37:30.506Z,8.00
2023-01-05T01:39:59.008Z,7.99
2023-01-05T01:42:27.213Z,8.07
2023-01-05T01:45:02.380Z,8.07
2023-01-05T01:47:49.299Z,8.06
2023-01-05T01:50:34.975Z,8.08
2023-01-05T01:53:08.103Z,8.05
2023-01-05T01:55:37.251Z,8.02
2023-01-05T01:58:11.416Z,8.00
2023-01-05T02:00:41.796Z,7.95
2023-01-05T02:03:10.825Z,7.93
2023-01-05T02:05:39.272Z,7.91
2023-01-05T02:08:15.941Z,7.86
2023-01-05T02:11:37.208Z,7.82
2023-01-05T02:14:33.959Z,7.78
2023-01-05T02:17:23.258Z,7.71
2023-01-05T02:20:02.558Z,7.64
2023-01-05T02:23:02.406Z,7.60
2023-01-05T02:26:12.801Z,7.55
2023-01-05T02:29:16.573Z,7.47
2023-01-05T02:32:22.176Z,7.39
2023-01-05T02:35:14.124Z,7.37
2023-01-05T02:38:20.050Z,7.36
2023-01-05T02:40:54.529Z,7.36
2023-01-05T02:43:23.212Z,7.35
2023-01-05T02:45:51.230Z,7.34
2023-01-05T02:48:19.060Z,7.38
2023-01-05T02:51:01.579Z,7.39
2023-01-05T02:53:39.925Z,7.40
2023-01-05T02:56:21.094Z,7.40
2023-01-05T02:59:07.658Z,7.38
2023-01-05T03:01:47.644Z,7.38
2023-01-05T03:04:28.705Z,7.36
2023-01-05T03:07:06.678Z,7.33
2023-01-05T03:09:38.967Z,7.30
2023-01-05T03:12:53.689Z,7.30
2023-01-05T03:15:32.781Z,7.22
2023-01-05T03:18:08.010Z,7.26
2023-01-05T03:20:49.651Z,7.26
2023-01-05T03:23:40.040Z,7.32
2023-01-05T03:26:28.172Z,7.29
2023-01-05T03:29:21.129Z,7.19
2023-01-05T03:32:29.109Z,7.07
2023-01-05T03:35:32.912Z,6.93
2023-01-05T03:38:22.935Z,6.87
2023-01-05T03:40:58.403Z,6.84
2023-01-05T03:43:26.900Z,6.83
2023-01-05T03:45:57.857Z,6.83
2023-01-05T03:48:29.144Z,6.85
2023-01-05T03:50:57.279Z,6.81
2023-01-05T03:53:26.646Z,6.78
2023-01-05T03:55:55.163Z,6.78
2023-01-05T03:58:25.171Z,6.76
2023-01-05T04:00:53.534Z,6.83
2023-01-05T04:03:29.430Z,6.88
2023-01-05T04:06:00.519Z,6.86
2023-01-05T04:08:30.663Z,6.88
2023-01-05T04:11:15.465Z,6.89
2023-01-05T04:13:48.105Z,6.89
2023-01-05T04:16:17.474Z,6.91
2023-01-05T04:18:45.262Z,6.90
2023-01-05T04:21:16.095Z,6.92
2023-01-05T04:23:44.563Z,6.91
2023-01-05T04:26:12.598Z,6.88
2023-01-05T04:28:40.297Z,6.86
2023-01-05T04:31:11.004Z,6.81
2023-01-05T04:33:40.193Z,6.81
2023-01-05T04:36:09.065Z,6.78
2023-01-05T04:38:37.188Z,6.75
2023-01-05T04:41:07.252Z,6.70
2023-01-05T04:43:35.635Z,6.68
2023-01-05T04:46:04.286Z,6.68
2023-01-05T04:48:33.459Z,6.64
2023-01-05T04:51:01.538Z,6.60
2023-01-05T04:53:33.691Z,6.59
2023-01-05T04:56:02.243Z,6.57
2023-01-05T04:58:34.741Z,6.58
2023-01-05T05:01:03.462Z,6.56
2023-01-05T05:03:33.759Z,6.59
2023-01-05T05:06:04.177Z,6.58
2023-01-05T05:08:32.842Z,6.56
2023-01-05T05:11:02.467Z,6.57
2023-01-05T05:13:32.240Z,6.70
2023-01-05T05:16:01.884Z,6.86
2023-01-05T05:18:31.281Z,7.03
2023-01-05T05:20:59.666Z,7.32
2023-01-05T05:23:32.036Z,7.74
2023-01-05T05:26:00.832Z,8.25
2023-01-05T05:28:31.142Z,8.64
2023-01-05T05:30:59.234Z,8.77
2023-01-05T05:33:26.877Z,8.64
2023-01-05T05:35:54.743Z,8.41
2023-01-05T05:38:22.320Z,8.20
2023-01-05T05:40:50.158Z,7.97
2023-01-05T05:43:17.679Z,7.78
2023-01-05T05:45:50.345Z,7.57
2023-01-05T05:48:19.417Z,7.38
2023-01-05T05:50:47.384Z,7.27
2023-01-05T05:53:14.905Z,7.16
2023-01-05T05:55:42.843Z,7.06
2023-01-05T05:58:10.461Z,7.02
2023-01-05T06:00:38.347Z,6.96
2023-01-05T06:03:06.015Z,6.87
2023-01-05T06:05:33.927Z,6.83
2023-01-05T06:08:02.101Z,6.81
2023-01-05T06:10:30.068Z,6.77
2023-01-05T06:12:58.163Z,6.68
2023-01-05T06:15:25.909Z,6.62
2023-01-05T06:17:53.467Z,6.61
2023-01-05T06:20:21.439Z,6.56
2023-01-05T06:22:48.991Z,6.55
2023-01-05T06:25:16.913Z,6.53
2023-01-05T06:27:44.696Z,6.54
2023-01-05T06:30:13.261Z,6.57
2023-01-05T06:32:40.999Z,6.64
2023-01-05T06:35:09.463Z,6.67
2023-01-05T06:37:37.162Z,6.73
2023-01-05T06:40:05.892Z,6.69
2023-01-05T06:42:33.539Z,6.71
2023-01-05T06:45:01.544Z,6.75
2023-01-05T06:47:29.059Z,6.74
2023-01-05T06:49:57.355Z,6.80
2023-01-05T06:52:25.051Z,6.88
2023-01-05T06:54:52.818Z,6.95
2023-01-05T06:57:20.355Z,6.97
2023-01-05T06:59:48.207Z,7.02
2023-01-05T07:02:17.694Z,7.11
2023-01-05T07:04:45.581Z,7.16
2023-01-05T07:07:16.497Z,7.24
2023-01-05T07:09:49.193Z,7.28
2023-01-05T07:12:17.508Z,7.27
2023-01-05T07:14:45.630Z,7.32
2023-01-05T07:17:13.355Z,7.37
2023-01-05T07:19:41.333Z,7.42
2023-01-05T07:22:08.941Z,7.47
2023-01-05T07:24:36.909Z,7.56
2023-01-05T07:27:09.569Z,7.58
2023-01-05T07:29:38.170Z,7.60
2023-01-05T07:32:06.213Z,7.65
2023-01-05T07:34:34.100Z,7.69
2023-01-05T07:37:01.720Z,7.68
2023-01-05T07:39:29.511Z,7.70
2023-01-05T07:41:57.038Z,7.74
2023-01-05T07:44:26.929Z,7.78
2023-01-05T07:46:54.949Z,7.80
2023-01-05T07:49:22.764Z,7.83
2023-01-05T07:51:50.292Z,7.79
2023-01-05T07:54:18.293Z,7.82
2023-01-05T07:56:45.796Z,7.84
2023-01-05T07:59:13.682Z,7.90
2023-01-05T08:01:41.329Z,7.94
2023-01-05T08:04:11.000Z,7.96
2023-01-05T08:06:38.497Z,7.97
2023-01-05T08:09:25.266Z,7.97
2023-01-05T08:11:52.839Z,8.03
2023-01-05T08:14:20.793Z,8.19
2023-01-05T08:16:48.606Z,8.37
2023-01-05T08:19:16.527Z,8.43
2023-01-05T08:21:44.089Z,8.43
2023-01-05T08:24:12.009Z,8.40
2023-01-05T08:26:39.914Z,8.34
2023-01-05T08:29:07.928Z,8.36
2023-01-05T08:31:37.709Z,8.28
2023-01-05T08:34:06.279Z,8.26
2023-01-05T08:36:35.009Z,8.30
2023-01-05T08:39:03.324Z,8.35
2023-01-05T08:41:36.942Z,8.39
2023-01-05T08:44:10.826Z,8.44
2023-01-05T08:46:38.809Z,8.46
2023-01-05T08:49:09.773Z,8.48
2023-01-05T08:51:38.493Z,8.55
2023-01-05T08:54:06.581Z,8.60
2023-01-05T08:56:38.678Z,8.66
2023-01-05T08:59:07.014Z,8.73
2023-01-05T09:01:34.665Z,8.79
2023-01-05T09:04:02.873Z,8.82
2023-01-05T09:06:30.474Z,8.73
2023-01-05T09:08:58.446Z,8.59
2023-01-05T09:11:26.563Z,8.53
2023-01-05T09:13:58.163Z,8.47
2023-01-05T09:19:17.728Z,8.57
2023-01-05T09:21:45.458Z,8.63
2023-01-05T09:24:13.373Z,8.72
2023-01-05T09:26:42.527Z,8.80
2023-01-05T09:29:11.791Z,8.87
2023-01-05T09:31:42.062Z,8.90
2023-01-05T09:34:11.000Z,8.95
2023-01-05T09:36:41.648Z,9.04
2023-01-05T09:39:10.707Z,9.12
2023-01-05T09:41:50.277Z,9.20
2023-01-05T09:44:31.571Z,9.34
2023-01-05T09:47:26.187Z,9.50
2023-01-05T09:49:55.546Z,9.54
2023-01-05T09:52:23.304Z,9.66
2023-01-05T09:54:51.297Z,9.81
2023-01-05T09:57:30.824Z,9.92
2023-01-05T10:00:07.837Z,10.05
2023-01-05T10:03:13.004Z,10.15
2023-01-05T10:05:48.719Z,10.28
2023-01-05T10:08:40.423Z,10.41
2023-01-05T10:11:55.849Z,10.59
2023-01-05T10:14:33.922Z,10.75
2023-01-05T10:17:39.268Z,10.95
2023-01-05T10:19:55.844Z,11.18
2023-01-05T10:22:39.208Z,11.40
2023-01-05T10:25:32.336Z,11.63
2023-01-05T10:28:27.504Z,11.83
2023-01-05T10:30:59.559Z,12.01
2023-01-05T10:34:03.358Z,12.18
2023-01-05T10:40:46.924Z,12.40
2023-01-05T10:43:56.455Z,12.39
2023-01-05T10:46:38.150Z,12.38
2023-01-05T10:49:16.580Z,12.34
2023-01-05T10:51:45.403Z,12.31
2023-01-05T10:54:39.311Z,12.32
2023-01-05T10:57:34.016Z,12.32
2023-01-05T11:00:12.060Z,12.31
2023-01-05T11:03:07.785Z,12.26
2023-01-05T11:05:47.332Z,12.23
2023-01-05T11:08:25.663Z,12.22
2023-01-05T11:11:01.573Z,12.24
2023-01-05T11:13:42.620Z,12.29
2023-01-05T11:16:26.623Z,12.40
2023-01-05T11:19:13.860Z,12.48
2023-01-05T11:21:46.673Z,12.61
2023-01-05T11:24:34.870Z,12.76
2023-01-05T11:27:22.998Z,12.89
2023-01-05T11:30:25.506Z,13.07
2023-01-05T11:32:53.175Z,13.23
2023-01-05T11:35:44.154Z,13.37
2023-01-05T11:38:31.539Z,13.56
2023-01-05T11:41:01.194Z,13.75
2023-01-05T11:43:32.639Z,13.96
2023-01-05T11:46:04.789Z,14.07
2023-01-05T11:48:36.259Z,14.13
2023-01-05T11:51:04.568Z,14.21
2023-01-05T11:53:35.173Z,14.45
2023-01-05T11:56:22.093Z,14.75
2023-01-05T11:58:55.222Z,14.82
2023-01-05T12:01:41.781Z,14.98
2023-01-05T12:05:04.307Z,15.15
2023-01-05T12:07:36.503Z,15.41
2023-01-05T12:10:13.189Z,15.49
2023-01-05T12:12:50.399Z,15.75
2023-01-05T12:16:02.310Z,15.86
2023-01-05T12:19:44.147Z,15.81
2023-01-05T12:22:42.264Z,15.83
2023-01-05T12:25:32.786Z,15.89
2023-01-05T12:28:41.857Z,16.01
2023-01-05T12:35:01.100Z,16.02
2023-01-05T12:37:49.401Z,16.26
2023-01-05T12:40:44.219Z,16.56
2023-01-05T12:43:32.966Z,16.77
2023-01-05T12:46:07.063Z,16.87
2023-01-05T12:48:50.637Z,17.03
2023-01-05T12:51:34.332Z,17.09
2023-01-05T12:54:26.786Z,17.18
2023-01-05T12:57:09.439Z,17.16
2023-01-05T12:59:54.767Z,17.22
2023-01-05T13:02:32.387Z,17.18
2023-01-05T13:05:10.352Z,17.13
2023-01-05T13:07:59.164Z,17.15
2023-01-05T13:10:33.914Z,17.09
2023-01-05T13:13:13.540Z,16.86
2023-01-05T13:15:56.844Z,16.80
2023-01-05T13:18:26.939Z,16.77
2023-01-05T13:21:06.857Z,16.90
2023-01-05T13:23:44.356Z,17.12
2023-01-05T13:26:18.689Z,17.20
2023-01-05T13:28:54.094Z,17.25
2023-01-05T13:31:52.653Z,17.29
2023-01-05T13:34:23.046Z,17.44
2023-01-05T13:37:15.267Z,17.63
2023-01-05T13:40:06.962Z,17.65
2023-01-05T13:42:40.886Z,17.64
2023-01-05T13:45:38.099Z,17.43
2023-01-05T13:49:04.009Z,16.82
2023-01-05T13:52:04.002Z,16.42
2023-01-05T13:55:01.519Z,15.90
2023-01-05T13:57:43.395Z,15.60
2023-01-05T14:00:29.610Z,15.44
2023-01-05T14:03:22.857Z,15.29
2023-01-05T14:06:00.935Z,15.06
2023-01-05T14:08:39.905Z,14.77
2023-01-05T14:11:11.010Z,14.63
2023-01-05T14:14:20.136Z,14.51
2023-01-05T14:16:49.572Z,14.43
2023-01-05T14:19:33.592Z,14.37
2023-01-05T14:22:24.839Z,14.29
2023-01-05T14:24:54.279Z,14.19
2023-01-05T14:27:25.160Z,14.20
2023-01-05T14:29:52.768Z,14.11
2023-01-05T14:32:26.847Z,14.05
2023-01-05T14:35:30.949Z,13.95
2023-01-05T14:38:02.679Z,13.86
2023-01-05T14:40:46.683Z,13.76
2023-01-05T14:43:22.924Z,13.68
2023-01-05T14:46:18.269Z,13.54
2023-01-05T14:49:02.568Z,13.45
2023-01-05T14:51:33.122Z,13.44
2023-01-05T14:54:04.882Z,13.46
2023-01-05T14:56:36.591Z,13.47
2023-01-05T15:03:48.269Z,13.43
2023-01-05T15:06:45.359Z,13.31
2023-01-05T15:09:44.279Z,13.33
2023-01-05T15:12:36.535Z,13.32
2023-01-05T15:15:31.843Z,13.43
2023-01-05T15:18:14.839Z,13.43
2023-01-05T15:21:28.807Z,13.41
2023-01-05T15:24:18.276Z,13.40
2023-01-05T15:27:28.958Z,13.39
2023-01-05T15:30:40.661Z,13.31
2023-01-05T15:33:23.046Z,13.29
2023-01-05T15:36:01.168Z,13.28
2023-01-05T15:38:30.904Z,13.22
2023-01-05T15:41:13.409Z,13.17
2023-01-05T15:43:42.792Z,13.20
2023-01-05T15:46:12.536Z,13.25
2023-01-05T15:48:45.927Z,13.17
2023-01-05T15:51:30.307Z,13.17
2023-01-05T15:54:04.092Z,13.19
2023-01-05T15:56:36.741Z,13.23
2023-01-05T16:00:05.583Z,13.33
2023-01-05T16:02:58.654Z,13.19
2023-01-05T16:05:34.144Z,13.16
2023-01-05T16:08:14.020Z,13.13
2023-01-05T16:11:01.011Z,13.12
2023-01-05T16:13:43.504Z,13.03
2023-01-05T16:16:54.998Z,13.05
2023-01-05T16:19:38.631Z,13.05
2023-01-05T16:22:17.975Z,13.03
2023-01-05T16:25:21.612Z,12.96
2023-01-05T16:27:58.809Z,12.91
2023-01-05T16:30:57.763Z,12.94
2023-01-05T16:33:40.418Z,12.99
2023-01-05T16:36:28.817Z,12.95
2023-01-05T16:39:24.195Z,12.96
2023-01-05T16:42:55.535Z,13.00
2023-01-05T16:45:35.809Z,13.03
2023-01-05T16:48:23.409Z,12.96
2023-01-05T16:50:56.793Z,12.95
2023-01-05T16:53:25.373Z,12.96
2023-01-05T16:55:55.099Z,12.97
2023-01-05T16:58:40.136Z,12.93
2023-01-05T17:01:59.510Z,12.87
2023-01-05T17:04:27.378Z,12.90
2023-01-05T17:06:58.505Z,12.73
2023-01-05T17:09:33.485Z,12.67
2023-01-05T17:12:01.468Z,12.68
2023-01-05T17:14:29.199Z,12.73
2023-01-05T17:16:57.113Z,12.69
2023-01-05T17:19:27.846Z,12.74
2023-01-05T17:21:59.411Z,12.68
2023-01-05T17:24:28.246Z,12.67
2023-01-05T17:26:56.347Z,12.71
2023-01-05T17:29:27.561Z,12.64
2023-01-05T17:31:56.697Z,12.57
2023-01-05T17:34:24.949Z,12.57
2023-01-05T17:37:00.845Z,12.58
2023-01-05T17:39:28.848Z,12.56
2023-01-05T17:42:16.851Z,12.60
2023-01-05T17:44:45.021Z,12.63
2023-01-05T17:47:12.941Z,12.56
2023-01-05T17:49:40.768Z,12.51
2023-01-05T17:52:09.348Z,12.51
2023-01-05T17:54:40.585Z,12.51
2023-01-05T17:57:14.457Z,12.50
2023-01-05T17:59:49.435Z,12.50
2023-01-05T18:02:17.590Z,12.52
2023-01-05T18:04:45.179Z,12.52
2023-01-05T18:07:13.198Z,12.53
2023-01-05T18:09:40.754Z,12.54
2023-01-05T18:12:10.190Z,12.59
2023-01-05T18:17:06.699Z,12.47
2023-01-05T18:19:34.733Z,12.47
2023-01-05T18:22:02.587Z,12.52
2023-01-05T18:24:30.734Z,12.53
2023-01-05T18:26:58.756Z,12.58
2023-01-05T18:29:26.915Z,12.48
2023-01-05T18:31:55.174Z,12.52
2023-01-05T18:34:23.287Z,12.49
2023-01-05T18:36:58.303Z,12.45
2023-01-05T18:39:33.612Z,12.50
2023-01-05T18:42:01.156Z,12.52
2023-01-05T18:44:29.197Z,12.51
2023-01-05T18:46:57.721Z,12.60
2023-01-05T18:49:25.533Z,12.54
2023-01-05T18:51:53.291Z,12.55
2023-01-05T18:54:21.743Z,12.53
2023-01-05T18:56:49.524Z,12.53
2023-01-05T18:59:17.585Z,12.52
2023-01-05T19:01:45.132Z,12.58
2023-01-05T19:04:15.964Z,12.55
2023-01-05T19:06:43.950Z,12.54
2023-01-05T19:09:14.192Z,12.54
2023-01-05T19:11:47.901Z,12.55
2023-01-05T19:14:18.066Z,12.45
2023-01-05T19:16:49.390Z,12.48
2023-01-05T19:19:19.383Z,12.42
2023-01-05T19:21:47.329Z,12.37
2023-01-05T19:24:20.362Z,12.20
2023-01-05T19:26:49.531Z,12.19
2023-01-05T19:29:18.761Z,12.26
2023-01-05T19:31:48.374Z,12.20
2023-01-05T19:34:19.461Z,12.25
2023-01-05T19:36:48.546Z,12.20
2023-01-05T19:39:19.753Z,12.13
2023-01-05T19:41:51.336Z,12.18
2023-01-05T19:44:21.932Z,12.19
2023-01-05T19:46:52.257Z,12.24
2023-01-05T19:49:26.347Z,12.31
2023-01-05T19:51:54.533Z,12.32
2023-01-05T19:54:24.020Z,12.21
2023-01-05T19:56:52.213Z,12.16
2023-01-05T19:59:24.878Z,12.17
2023-01-05T20:01:53.460Z,12.17
2023-01-05T20:04:21.475Z,12.19
2023-01-05T20:06:49.172Z,12.21
2023-01-05T20:09:19.416Z,12.20
2023-01-05T20:11:54.771Z,12.17
2023-01-05T20:14:32.713Z,12.26
2023-01-05T20:17:08.330Z,12.29
2023-01-05T20:19:38.163Z,12.35
2023-01-05T20:22:11.962Z,12.40
2023-01-05T20:24:40.589Z,12.33
2023-01-05T20:27:13.372Z,12.37
2023-01-05T20:29:41.826Z,12.41
2023-01-05T20:32:15.879Z,12.45
2023-01-05T20:34:49.321Z,12.50
2023-01-05T20:37:16.980Z,12.56
2023-01-05T20:39:45.135Z,12.57
2023-01-05T20:42:14.063Z,12.61
2023-01-05T20:44:46.384Z,12.56
2023-01-05T20:47:15.438Z,12.49
2023-01-05T20:49:45.277Z,12.45
2023-01-05T20:52:14.901Z,12.46
2023-01-05T20:54:43.834Z,12.44
2023-01-05T20:57:11.889Z,12.46
2023-01-05T20:59:40.897Z,12.45
2023-01-05T21:02:22.984Z,12.41
2023-01-05T21:04:53.423Z,12.42
2023-01-05T21:07:22.191Z,12.43
2023-01-05T21:09:51.512Z,12.34
2023-01-05T21:12:20.224Z,12.31
2023-01-05T21:14:48.174Z,12.24
2023-01-05T21:17:16.663Z,12.19
2023-01-05T21:19:44.845Z,12.15
2023-01-05T21:22:12.559Z,12.09
2023-01-05T21:24:41.150Z,11.96
2023-01-05T21:27:08.913Z,11.86
2023-01-05T21:29:36.868Z,11.78
2023-01-05T21:32:04.586Z,11.68
2023-01-05T21:34:32.596Z,11.60
2023-01-05T21:37:00.588Z,11.52
2023-01-05T21:39:28.993Z,11.55
2023-01-05T21:42:15.300Z,11.59
2023-01-05T21:44:43.458Z,11.57
2023-01-05T21:47:11.367Z,11.59
2023-01-05T21:49:40.036Z,11.60
2023-01-05T21:52:28.535Z,11.63
2023-01-05T21:55:15.519Z,11.57
2023-01-05T21:57:43.123Z,11.52
2023-01-05T22:00:12.428Z,11.49
2023-01-05T22:02:40.507Z,11.46
2023-01-05T22:05:08.850Z,11.35
2023-01-05T22:07:36.545Z,11.29
2023-01-05T22:10:05.188Z,11.28
2023-01-05T22:12:32.695Z,11.35
2023-01-05T22:15:00.711Z,11.38
2023-01-05T22:17:28.219Z,11.45
2023-01-05T22:19:56.122Z,11.38
2023-01-05T22:22:23.573Z,11.41
2023-01-05T22:24:51.457Z,11.34
2023-01-05T22:27:19.073Z,11.25
2023-01-05T22:29:47.147Z,11.23
2023-01-05T22:32:14.824Z,11.36
2023-01-05T22:34:44.517Z,11.36
2023-01-05T22:37:12.485Z,11.39
2023-01-05T22:39:40.661Z,11.34
2023-01-05T22:42:08.319Z,11.30
2023-01-05T22:44:36.268Z,11.23
2023-01-05T22:47:03.842Z,11.21
2023-01-05T22:49:31.892Z,11.29
2023-01-05T22:51:59.630Z,11.22
2023-01-05T22:54:27.604Z,11.29
2023-01-05T22:56:55.251Z,11.29
2023-01-05T22:59:23.391Z,11.14
2023-01-05T23:01:51.073Z,11.06
2023-01-05T23:04:19.039Z,11.02
2023-01-05T23:06:47.200Z,10.92
2023-01-05T23:09:16.972Z,10.93
2023-01-05T23:11:46.494Z,10.89
2023-01-05T23:14:17.471Z,10.93
2023-01-05T23:16:47.461Z,10.90
2023-01-05T23:19:17.264Z,10.89
2023-01-05T23:21:45.344Z,10.98
2023-01-05T23:24:13.612Z,10.96
2023-01-05T23:26:41.422Z,10.96
2023-01-05T23:29:09.606Z,11.03
2023-01-05T23:31:37.367Z,11.05
2023-01-05T23:34:05.300Z,11.12
2023-01-05T23:36:33.005Z,11.15
2023-01-05T23:39:01.052Z,11.16
2023-01-05T23:41:28.686Z,11.10
2023-01-05T23:43:56.612Z,11.12
2023-01-05T23:46:24.261Z,11.15
2023-01-05T23:48:53.210Z,11.16
2023-01-05T23:51:21.297Z,11.14
2023-01-05T23:53:53.537Z,11.16
2023-01-05T23:56:26.831Z,11.14
2023-01-05T23:58:59.134Z,11.14
